Time,TemperatureF,DewpointF,PressureIn,WindDirection,WindDirectionDegrees,WindSpeedMPH,WindSpeedGustMPH,Humidity,HourlyPrecipIn,Conditions,Clouds,dailyrainin,SoftwareType,DateUTC
2013-04-14 00:00:00,69.4,60.8,29.87,SSW,203,1.0,-999.0,74,0.00,,,0.00,Wunderground v.1.15,2013-04-14 10:00:00,
2013-04-14 00:05:00,69.4,60.8,29.87,SSW,203,1.0,-999.0,74,0.00,,,0.00,Wunderground v.1.15,2013-04-14 10:05:00,
2013-04-14 00:10:00,69.4,60.8,29.87,SSW,203,1.0,-999.0,74,0.00,,,0.00,Wunderground v.1.15,2013-04-14 10:10:00,
2013-04-14 00:15:00,69.4,60.8,29.87,SSW,203,1.0,-999.0,74,0.00,,,0.00,Wunderground v.1.15,2013-04-14 10:15:00,
2013-04-14 00:20:00,69.4,60.8,29.87,SSW,203,1.0,-999.0,74,0.00,,,0.00,Wunderground v.1.15,2013-04-14 10:20:00,
2013-04-14 00:25:00,69.4,60.8,29.87,SSW,203,1.0,-999.0,74,0.00,,,0.00,Wunderground v.1.15,2013-04-14 10:25:00,
2013-04-14 00:30:00,69.4,60.8,29.87,SSW,203,1.0,-999.0,74,0.00,,,0.00,Wunderground v.1.15,2013-04-14 10:30:00,
2013-04-14 00:35:00,69.4,60.8,29.87,SSW,203,1.0,-999.0,74,0.00,,,0.00,Wunderground v.1.15,2013-04-14 10:35:00,
2013-04-14 00:40:00,69.4,60.8,29.87,SSW,203,1.0,-999.0,74,0.00,,,0.00,Wunderground v.1.15,2013-04-14 10:40:00,
2013-04-14 00:45:00,69.6,61.3,29.85,SSW,203,1.0,-999.0,75,0.00,,,0.00,Wunderground v.1.15,2013-04-14 10:45:00,
2013-04-14 00:50:00,69.6,61.3,29.85,SSW,203,1.0,-999.0,75,0.00,,,0.00,Wunderground v.1.15,2013-04-14 10:50:00,
2013-04-14 00:55:00,69.6,61.3,29.85,SSW,203,1.0,-999.0,75,0.00,,,0.00,Wunderground v.1.15,2013-04-14 10:55:00,
2013-04-14 01:00:00,69.6,61.3,29.85,SSW,203,1.0,-999.0,75,0.00,,,0.00,Wunderground v.1.15,2013-04-14 11:00:00,
2013-04-14 01:05:00,69.6,61.3,29.85,SSW,203,1.0,-999.0,75,0.00,,,0.00,Wunderground v.1.15,2013-04-14 11:05:00,
2013-04-14 01:10:00,69.6,61.3,29.85,SSW,203,1.0,-999.0,75,0.00,,,0.00,Wunderground v.1.15,2013-04-14 11:10:00,
2013-04-14 01:15:00,70.3,62.0,29.84,SSW,203,1.0,-999.0,75,0.00,,,0.00,Wunderground v.1.15,2013-04-14 11:15:00,
2013-04-14 01:20:00,70.3,62.0,29.84,SSW,203,1.0,-999.0,75,0.00,,,0.00,Wunderground v.1.15,2013-04-14 11:20:00,
2013-04-14 01:25:00,70.3,62.0,29.84,SSW,203,1.0,-999.0,75,0.00,,,0.00,Wunderground v.1.15,2013-04-14 11:25:00,
2013-04-14 01:30:00,70.3,62.0,29.84,SSW,203,1.0,-999.0,75,0.00,,,0.00,Wunderground v.1.15,2013-04-14 11:30:00,
2013-04-14 01:35:00,70.3,62.0,29.84,SSW,203,1.0,-999.0,75,0.00,,,0.00,Wunderground v.1.15,2013-04-14 11:35:00,
2013-04-14 01:40:00,70.3,62.0,29.84,SSW,203,1.0,-999.0,75,0.00,,,0.00,Wunderground v.1.15,2013-04-14 11:40:00,
2013-04-14 01:45:00,70.5,62.6,29.83,SSW,203,1.0,-999.0,76,0.00,,,0.00,Wunderground v.1.15,2013-04-14 11:45:00,
2013-04-14 01:50:00,70.5,62.6,29.83,SSW,203,1.0,-999.0,76,0.00,,,0.00,Wunderground v.1.15,2013-04-14 11:50:00,
2013-04-14 01:55:00,70.5,62.6,29.83,SSW,203,1.0,-999.0,76,0.00,,,0.00,Wunderground v.1.15,2013-04-14 11:55:00,
2013-04-14 02:00:00,70.5,62.6,29.83,SSW,203,1.0,-999.0,76,0.00,,,0.00,Wunderground v.1.15,2013-04-14 12:00:00,
2013-04-14 02:05:00,70.5,62.6,29.83,SSW,203,1.0,-999.0,76,0.00,,,0.00,Wunderground v.1.15,2013-04-14 12:05:00,
2013-04-14 02:10:00,70.5,62.6,29.83,SSW,203,1.0,-999.0,76,0.00,,,0.00,Wunderground v.1.15,2013-04-14 12:10:00,
2013-04-14 02:15:00,70.5,62.9,29.83,SSW,203,1.0,-999.0,77,0.00,,,0.00,Wunderground v.1.15,2013-04-14 12:15:00,
2013-04-14 02:20:00,70.5,62.9,29.83,SSW,203,1.0,-999.0,77,0.00,,,0.00,Wunderground v.1.15,2013-04-14 12:20:00,
2013-04-14 02:25:00,70.5,62.9,29.83,SSW,203,1.0,-999.0,77,0.00,,,0.00,Wunderground v.1.15,2013-04-14 12:25:00,
2013-04-14 02:30:00,70.5,62.9,29.83,SSW,203,1.0,-999.0,77,0.00,,,0.00,Wunderground v.1.15,2013-04-14 12:30:00,
2013-04-14 02:35:00,70.5,62.9,29.83,SSW,203,1.0,-999.0,77,0.00,,,0.00,Wunderground v.1.15,2013-04-14 12:35:00,
2013-04-14 02:40:00,70.5,62.9,29.83,SSW,203,1.0,-999.0,77,0.00,,,0.00,Wunderground v.1.15,2013-04-14 12:40:00,
2013-04-14 02:45:00,70.3,63.1,29.83,SSW,203,1.0,-999.0,78,0.00,,,0.00,Wunderground v.1.15,2013-04-14 12:45:00,
2013-04-14 02:50:00,70.3,63.1,29.83,SSW,203,1.0,-999.0,78,0.00,,,0.00,Wunderground v.1.15,2013-04-14 12:50:00,
2013-04-14 02:55:00,70.3,63.1,29.83,SSW,203,1.0,-999.0,78,0.00,,,0.00,Wunderground v.1.15,2013-04-14 12:55:00,
2013-04-14 03:00:00,70.3,63.1,29.83,SSW,203,1.0,-999.0,78,0.00,,,0.00,Wunderground v.1.15,2013-04-14 13:00:00,
2013-04-14 03:05:00,70.3,63.1,29.83,SSW,203,1.0,-999.0,78,0.00,,,0.00,Wunderground v.1.15,2013-04-14 13:05:00,
2013-04-14 03:10:00,70.3,63.1,29.83,SSW,203,1.0,-999.0,78,0.00,,,0.00,Wunderground v.1.15,2013-04-14 13:10:00,
2013-04-14 03:15:00,70.3,63.5,29.83,SSW,203,2.0,-999.0,79,0.00,,,0.00,Wunderground v.1.15,2013-04-14 13:15:00,
2013-04-14 03:20:00,70.3,63.5,29.83,SSW,203,2.0,-999.0,79,0.00,,,0.00,Wunderground v.1.15,2013-04-14 13:20:00,
2013-04-14 03:25:00,70.3,63.5,29.83,SSW,203,2.0,-999.0,79,0.00,,,0.00,Wunderground v.1.15,2013-04-14 13:25:00,
2013-04-14 03:30:00,70.3,63.5,29.83,SSW,203,2.0,-999.0,79,0.00,,,0.00,Wunderground v.1.15,2013-04-14 13:30:00,
2013-04-14 03:35:00,70.3,63.5,29.83,SSW,203,2.0,-999.0,79,0.00,,,0.00,Wunderground v.1.15,2013-04-14 13:35:00,
2013-04-14 03:40:00,70.3,63.5,29.83,SSW,203,2.0,-999.0,79,0.00,,,0.00,Wunderground v.1.15,2013-04-14 13:40:00,
2013-04-14 03:45:00,70.7,64.6,29.83,SSW,203,2.0,-999.0,81,0.00,,,0.00,Wunderground v.1.15,2013-04-14 13:45:00,
2013-04-14 03:50:00,70.7,64.6,29.83,SSW,203,2.0,-999.0,81,0.00,,,0.00,Wunderground v.1.15,2013-04-14 13:50:00,
2013-04-14 03:55:00,70.7,64.6,29.83,SSW,203,2.0,-999.0,81,0.00,,,0.00,Wunderground v.1.15,2013-04-14 13:55:00,
2013-04-14 04:00:00,70.7,64.6,29.83,SSW,203,2.0,-999.0,81,0.00,,,0.00,Wunderground v.1.15,2013-04-14 14:00:00,
2013-04-14 04:05:00,70.7,64.6,29.83,SSW,203,2.0,-999.0,81,0.00,,,0.00,Wunderground v.1.15,2013-04-14 14:05:00,
2013-04-14 04:10:00,70.7,64.6,29.83,SSW,203,2.0,-999.0,81,0.00,,,0.00,Wunderground v.1.15,2013-04-14 14:10:00,
2013-04-14 04:15:00,70.3,64.2,29.83,SSW,203,1.0,-999.0,81,0.00,,,0.00,Wunderground v.1.15,2013-04-14 14:15:00,
2013-04-14 04:20:00,70.3,64.2,29.83,SSW,203,1.0,-999.0,81,0.00,,,0.00,Wunderground v.1.15,2013-04-14 14:20:00,
2013-04-14 04:25:00,70.3,64.2,29.83,SSW,203,1.0,-999.0,81,0.00,,,0.00,Wunderground v.1.15,2013-04-14 14:25:00,
2013-04-14 04:30:00,70.3,64.2,29.83,SSW,203,1.0,-999.0,81,0.00,,,0.00,Wunderground v.1.15,2013-04-14 14:30:00,
2013-04-14 04:35:00,70.3,64.2,29.83,SSW,203,1.0,-999.0,81,0.00,,,0.00,Wunderground v.1.15,2013-04-14 14:35:00,
2013-04-14 04:40:00,70.3,64.2,29.83,SSW,203,1.0,-999.0,81,0.00,,,0.00,Wunderground v.1.15,2013-04-14 14:40:00,
2013-04-14 04:45:00,69.5,64.1,29.84,SSW,203,0.0,-999.0,83,0.00,,,0.00,Wunderground v.1.15,2013-04-14 14:45:00,
2013-04-14 04:50:00,69.5,64.1,29.84,SSW,203,0.0,-999.0,83,0.00,,,0.00,Wunderground v.1.15,2013-04-14 14:50:00,
2013-04-14 04:55:00,69.5,64.1,29.84,SSW,203,0.0,-999.0,83,0.00,,,0.00,Wunderground v.1.15,2013-04-14 14:55:00,
2013-04-14 05:00:00,69.5,64.1,29.84,SSW,203,0.0,-999.0,83,0.00,,,0.00,Wunderground v.1.15,2013-04-14 15:00:00,
2013-04-14 05:05:00,69.5,64.1,29.84,SSW,203,0.0,-999.0,83,0.00,,,0.00,Wunderground v.1.15,2013-04-14 15:05:00,
2013-04-14 05:10:00,69.5,64.1,29.84,SSW,203,0.0,-999.0,83,0.00,,,0.00,Wunderground v.1.15,2013-04-14 15:10:00,
2013-04-14 05:15:00,69.3,64.3,29.84,SSW,203,0.0,-999.0,84,0.00,,,0.00,Wunderground v.1.15,2013-04-14 15:15:00,
2013-04-14 05:20:00,69.3,64.3,29.84,SSW,203,0.0,-999.0,84,0.00,,,0.00,Wunderground v.1.15,2013-04-14 15:20:00,
2013-04-14 05:25:00,69.3,64.3,29.84,SSW,203,0.0,-999.0,84,0.00,,,0.00,Wunderground v.1.15,2013-04-14 15:25:00,
2013-04-14 05:30:00,69.3,64.3,29.84,SSW,203,0.0,-999.0,84,0.00,,,0.00,Wunderground v.1.15,2013-04-14 15:30:00,
2013-04-14 05:35:00,69.3,64.3,29.84,SSW,203,0.0,-999.0,84,0.00,,,0.00,Wunderground v.1.15,2013-04-14 15:35:00,
2013-04-14 05:40:00,69.3,64.3,29.84,SSW,203,0.0,-999.0,84,0.00,,,0.00,Wunderground v.1.15,2013-04-14 15:40:00,
2013-04-14 05:45:00,69.7,65.3,29.84,SSW,203,1.0,-999.0,86,0.00,,,0.00,Wunderground v.1.15,2013-04-14 15:45:00,
2013-04-14 05:50:00,69.7,65.3,29.84,SSW,203,1.0,-999.0,86,0.00,,,0.00,Wunderground v.1.15,2013-04-14 15:50:00,
2013-04-14 05:55:00,69.7,65.3,29.84,SSW,203,1.0,-999.0,86,0.00,,,0.00,Wunderground v.1.15,2013-04-14 15:55:00,
2013-04-14 06:00:00,69.7,65.3,29.84,SSW,203,1.0,-999.0,86,0.00,,,0.00,Wunderground v.1.15,2013-04-14 16:00:00,
2013-04-14 06:05:00,69.7,65.3,29.84,SSW,203,1.0,-999.0,86,0.00,,,0.00,Wunderground v.1.15,2013-04-14 16:05:00,
2013-04-14 06:10:00,69.7,65.3,29.84,SSW,203,1.0,-999.0,86,0.00,,,0.00,Wunderground v.1.15,2013-04-14 16:10:00,
2013-04-14 06:15:00,69.9,65.9,29.85,SSW,203,0.0,-999.0,87,0.00,,,0.00,Wunderground v.1.15,2013-04-14 16:15:00,
2013-04-14 06:20:00,69.9,65.9,29.85,SSW,203,0.0,-999.0,87,0.00,,,0.00,Wunderground v.1.15,2013-04-14 16:20:00,
2013-04-14 06:25:00,69.9,65.9,29.85,SSW,203,0.0,-999.0,87,0.00,,,0.00,Wunderground v.1.15,2013-04-14 16:25:00,
2013-04-14 06:30:00,69.9,65.9,29.85,SSW,203,0.0,-999.0,87,0.00,,,0.00,Wunderground v.1.15,2013-04-14 16:30:00,
2013-04-14 06:35:00,69.9,65.9,29.85,SSW,203,0.0,-999.0,87,0.00,,,0.00,Wunderground v.1.15,2013-04-14 16:35:00,
2013-04-14 06:40:00,69.9,65.9,29.85,SSW,203,0.0,-999.0,87,0.00,,,0.00,Wunderground v.1.15,2013-04-14 16:40:00,
2013-04-14 06:45:00,70.6,66.5,29.86,SSW,203,2.0,-999.0,87,0.00,,,0.00,Wunderground v.1.15,2013-04-14 16:45:00,
2013-04-14 06:50:00,70.6,66.5,29.86,SSW,203,2.0,-999.0,87,0.00,,,0.00,Wunderground v.1.15,2013-04-14 16:50:00,
2013-04-14 06:55:00,70.6,66.5,29.86,SSW,203,2.0,-999.0,87,0.00,,,0.00,Wunderground v.1.15,2013-04-14 16:55:00,
2013-04-14 07:00:00,70.6,66.5,29.86,SSW,203,2.0,-999.0,87,0.00,,,0.00,Wunderground v.1.15,2013-04-14 17:00:00,
2013-04-14 07:05:00,70.6,66.5,29.86,SSW,203,2.0,-999.0,87,0.00,,,0.00,Wunderground v.1.15,2013-04-14 17:05:00,
2013-04-14 07:10:00,70.6,66.5,29.86,SSW,203,2.0,-999.0,87,0.00,,,0.00,Wunderground v.1.15,2013-04-14 17:10:00,
2013-04-14 07:15:00,71.4,67.0,29.86,SSW,203,2.0,-999.0,86,0.00,,,0.00,Wunderground v.1.15,2013-04-14 17:15:00,
2013-04-14 07:20:00,71.4,67.0,29.86,SSW,203,2.0,-999.0,86,0.00,,,0.00,Wunderground v.1.15,2013-04-14 17:20:00,
2013-04-14 07:25:00,71.4,67.0,29.86,SSW,203,2.0,-999.0,86,0.00,,,0.00,Wunderground v.1.15,2013-04-14 17:25:00,
2013-04-14 07:30:00,71.4,67.0,29.86,SSW,203,2.0,-999.0,86,0.00,,,0.00,Wunderground v.1.15,2013-04-14 17:30:00,
2013-04-14 07:35:00,71.4,67.0,29.86,SSW,203,2.0,-999.0,86,0.00,,,0.00,Wunderground v.1.15,2013-04-14 17:35:00,
2013-04-14 07:40:00,71.4,67.0,29.86,SSW,203,2.0,-999.0,86,0.00,,,0.00,Wunderground v.1.15,2013-04-14 17:40:00,
2013-04-14 07:45:00,72.3,66.5,29.86,SW,225,4.0,-999.0,82,0.00,,,0.00,Wunderground v.1.15,2013-04-14 17:45:00,
2013-04-14 07:50:00,72.3,66.5,29.86,SW,225,4.0,-999.0,82,0.00,,,0.00,Wunderground v.1.15,2013-04-14 17:50:00,
2013-04-14 07:55:00,72.3,66.5,29.86,SW,225,4.0,-999.0,82,0.00,,,0.00,Wunderground v.1.15,2013-04-14 17:55:00,
2013-04-14 08:00:00,72.3,66.5,29.86,SW,225,4.0,-999.0,82,0.00,,,0.00,Wunderground v.1.15,2013-04-14 18:00:00,
2013-04-14 08:05:00,72.3,66.5,29.86,SW,225,4.0,-999.0,82,0.00,,,0.00,Wunderground v.1.15,2013-04-14 18:05:00,
2013-04-14 08:10:00,72.3,66.5,29.86,SW,225,4.0,-999.0,82,0.00,,,0.00,Wunderground v.1.15,2013-04-14 18:10:00,
2013-04-14 08:15:00,73.2,66.7,29.87,SW,225,5.0,-999.0,80,0.00,,,0.00,Wunderground v.1.15,2013-04-14 18:15:00,
2013-04-14 08:20:00,73.2,66.7,29.87,SW,225,5.0,-999.0,80,0.00,,,0.00,Wunderground v.1.15,2013-04-14 18:20:00,
2013-04-14 08:25:00,73.2,66.7,29.87,SW,225,5.0,-999.0,80,0.00,,,0.00,Wunderground v.1.15,2013-04-14 18:25:00,
2013-04-14 08:30:00,73.2,66.7,29.87,SW,225,5.0,-999.0,80,0.00,,,0.00,Wunderground v.1.15,2013-04-14 18:30:00,
2013-04-14 08:35:00,73.2,66.7,29.87,SW,225,5.0,-999.0,80,0.00,,,0.00,Wunderground v.1.15,2013-04-14 18:35:00,
2013-04-14 08:40:00,73.2,66.7,29.87,SW,225,5.0,-999.0,80,0.00,,,0.00,Wunderground v.1.15,2013-04-14 18:40:00,
2013-04-14 08:50:00,73.9,66.6,29.87,SW,225,4.0,-999.0,78,0.00,,,0.00,Wunderground v.1.15,2013-04-14 18:50:00,
2013-04-14 08:55:00,73.9,66.6,29.87,SW,225,4.0,-999.0,78,0.00,,,0.00,Wunderground v.1.15,2013-04-14 18:55:00,
2013-04-14 09:00:00,73.9,66.6,29.87,SW,225,4.0,-999.0,78,0.00,,,0.00,Wunderground v.1.15,2013-04-14 19:00:00,
2013-04-14 09:05:00,73.9,66.6,29.87,SW,225,4.0,-999.0,78,0.00,,,0.00,Wunderground v.1.15,2013-04-14 19:05:00,
2013-04-14 09:10:00,73.9,66.6,29.87,SW,225,4.0,-999.0,78,0.00,,,0.00,Wunderground v.1.15,2013-04-14 19:10:00,
2013-04-14 09:15:00,74.6,67.7,29.87,SW,225,7.0,-999.0,79,0.00,,,0.00,Wunderground v.1.15,2013-04-14 19:15:00,
2013-04-14 09:20:00,74.6,67.7,29.87,SW,225,7.0,-999.0,79,0.00,,,0.00,Wunderground v.1.15,2013-04-14 19:20:00,
2013-04-14 09:25:00,74.6,67.7,29.87,SW,225,7.0,-999.0,79,0.00,,,0.00,Wunderground v.1.15,2013-04-14 19:25:00,
2013-04-14 09:30:00,74.6,67.7,29.87,SW,225,7.0,-999.0,79,0.00,,,0.00,Wunderground v.1.15,2013-04-14 19:30:00,
2013-04-14 09:35:00,74.6,67.7,29.87,SW,225,7.0,-999.0,79,0.00,,,0.00,Wunderground v.1.15,2013-04-14 19:35:00,
2013-04-14 09:40:00,74.6,67.7,29.87,SW,225,7.0,-999.0,79,0.00,,,0.00,Wunderground v.1.15,2013-04-14 19:40:00,
2013-04-14 09:45:00,75.2,67.1,29.88,SW,225,8.0,-999.0,76,0.00,,,0.00,Wunderground v.1.15,2013-04-14 19:45:00,
2013-04-14 09:50:00,75.2,67.1,29.88,SW,225,8.0,-999.0,76,0.00,,,0.00,Wunderground v.1.15,2013-04-14 19:50:00,
2013-04-14 10:00:00,75.2,67.1,29.88,SW,225,8.0,-999.0,76,0.00,,,0.00,Wunderground v.1.15,2013-04-14 20:00:00,
2013-04-14 10:03:00,75.2,67.1,29.88,SW,225,8.0,-999.0,76,0.00,,,0.00,Wunderground v.1.15,2013-04-14 20:03:00,
2013-04-14 10:05:00,75.2,67.1,29.88,SW,225,8.0,-999.0,76,0.00,,,0.00,Wunderground v.1.15,2013-04-14 20:05:00,
2013-04-14 10:10:00,75.2,67.1,29.88,SW,225,8.0,-999.0,76,0.00,,,0.00,Wunderground v.1.15,2013-04-14 20:10:00,
2013-04-14 10:15:00,75.4,66.9,29.88,SW,225,7.0,-999.0,75,0.00,,,0.00,Wunderground v.1.15,2013-04-14 20:15:00,
2013-04-14 10:20:00,75.4,66.9,29.88,SW,225,7.0,-999.0,75,0.00,,,0.00,Wunderground v.1.15,2013-04-14 20:20:00,
2013-04-14 10:25:00,75.4,66.9,29.88,SW,225,7.0,-999.0,75,0.00,,,0.00,Wunderground v.1.15,2013-04-14 20:25:00,
2013-04-14 10:30:00,75.4,66.9,29.88,SW,225,7.0,-999.0,75,0.00,,,0.00,Wunderground v.1.15,2013-04-14 20:30:00,
2013-04-14 10:35:00,75.4,66.9,29.88,SW,225,7.0,-999.0,75,0.00,,,0.00,Wunderground v.1.15,2013-04-14 20:35:00,
2013-04-14 10:40:00,75.4,66.9,29.88,SW,225,7.0,-999.0,75,0.00,,,0.00,Wunderground v.1.15,2013-04-14 20:40:00,
2013-04-14 10:45:00,76.6,68.5,29.87,SW,225,8.0,-999.0,76,0.00,,,0.00,Wunderground v.1.15,2013-04-14 20:45:00,
2013-04-14 10:50:00,76.6,68.5,29.87,SW,225,8.0,-999.0,76,0.00,,,0.00,Wunderground v.1.15,2013-04-14 20:50:00,
2013-04-14 10:55:00,76.6,68.5,29.87,SW,225,8.0,-999.0,76,0.00,,,0.00,Wunderground v.1.15,2013-04-14 20:55:00,
2013-04-14 11:00:00,76.6,68.5,29.87,SW,225,8.0,-999.0,76,0.00,,,0.00,Wunderground v.1.15,2013-04-14 21:00:00,
2013-04-14 11:05:00,76.6,68.5,29.87,SW,225,8.0,-999.0,76,0.00,,,0.00,Wunderground v.1.15,2013-04-14 21:05:00,
2013-04-14 11:10:00,76.6,68.5,29.87,SW,225,8.0,-999.0,76,0.00,,,0.00,Wunderground v.1.15,2013-04-14 21:10:00,
2013-04-14 11:15:00,75.7,67.6,29.87,SW,225,7.0,-999.0,76,0.00,,,0.00,Wunderground v.1.15,2013-04-14 21:15:00,
2013-04-14 11:20:00,75.7,67.6,29.87,SW,225,7.0,-999.0,76,0.00,,,0.00,Wunderground v.1.15,2013-04-14 21:20:00,
2013-04-14 11:25:00,75.7,67.6,29.87,SW,225,7.0,-999.0,76,0.00,,,0.00,Wunderground v.1.15,2013-04-14 21:25:00,
2013-04-14 11:30:00,75.7,67.6,29.87,SW,225,7.0,-999.0,76,0.00,,,0.00,Wunderground v.1.15,2013-04-14 21:30:00,
2013-04-14 11:35:00,75.7,67.6,29.87,SW,225,7.0,-999.0,76,0.00,,,0.00,Wunderground v.1.15,2013-04-14 21:35:00,
2013-04-14 11:40:00,75.7,67.6,29.87,SW,225,7.0,-999.0,76,0.00,,,0.00,Wunderground v.1.15,2013-04-14 21:40:00,
2013-04-14 11:45:00,77.2,66.7,29.87,SW,225,7.0,-999.0,70,0.00,,,0.00,Wunderground v.1.15,2013-04-14 21:45:00,
2013-04-14 11:50:00,77.2,66.7,29.87,SW,225,7.0,-999.0,70,0.00,,,0.00,Wunderground v.1.15,2013-04-14 21:50:00,
2013-04-14 11:55:00,77.2,66.7,29.87,SW,225,7.0,-999.0,70,0.00,,,0.00,Wunderground v.1.15,2013-04-14 21:55:00,
2013-04-14 12:00:00,77.2,66.7,29.87,SW,225,7.0,-999.0,70,0.00,,,0.00,Wunderground v.1.15,2013-04-14 22:00:00,
2013-04-14 12:05:00,77.2,66.7,29.87,SW,225,7.0,-999.0,70,0.00,,,0.00,Wunderground v.1.15,2013-04-14 22:05:00,
2013-04-14 12:10:00,77.2,66.7,29.87,SW,225,7.0,-999.0,70,0.00,,,0.00,Wunderground v.1.15,2013-04-14 22:10:00,
2013-04-14 12:15:00,77.8,67.6,29.86,SW,225,7.0,-999.0,71,0.00,,,0.00,Wunderground v.1.15,2013-04-14 22:15:00,
2013-04-14 12:20:00,77.8,67.6,29.86,SW,225,7.0,-999.0,71,0.00,,,0.00,Wunderground v.1.15,2013-04-14 22:20:00,
2013-04-14 12:25:00,77.8,67.6,29.86,SW,225,7.0,-999.0,71,0.00,,,0.00,Wunderground v.1.15,2013-04-14 22:25:00,
2013-04-14 12:30:00,77.8,67.6,29.86,SW,225,7.0,-999.0,71,0.00,,,0.00,Wunderground v.1.15,2013-04-14 22:30:00,
2013-04-14 12:35:00,77.8,67.6,29.86,SW,225,7.0,-999.0,71,0.00,,,0.00,Wunderground v.1.15,2013-04-14 22:35:00,
2013-04-14 12:40:00,77.8,67.6,29.86,SW,225,7.0,-999.0,71,0.00,,,0.00,Wunderground v.1.15,2013-04-14 22:40:00,
2013-04-14 12:45:00,78.0,67.8,29.85,SW,225,9.0,-999.0,71,0.00,,,0.00,Wunderground v.1.15,2013-04-14 22:45:00,
2013-04-14 12:50:00,78.0,67.8,29.85,SW,225,9.0,-999.0,71,0.00,,,0.00,Wunderground v.1.15,2013-04-14 22:50:00,
2013-04-14 12:55:00,78.0,67.8,29.85,SW,225,9.0,-999.0,71,0.00,,,0.00,Wunderground v.1.15,2013-04-14 22:55:00,
2013-04-14 13:00:00,78.0,67.8,29.85,SW,225,9.0,-999.0,71,0.00,,,0.00,Wunderground v.1.15,2013-04-14 23:00:00,
2013-04-14 13:05:00,78.0,67.8,29.85,SW,225,9.0,-999.0,71,0.00,,,0.00,Wunderground v.1.15,2013-04-14 23:05:00,
2013-04-14 13:10:00,78.0,67.8,29.85,SW,225,9.0,-999.0,71,0.00,,,0.00,Wunderground v.1.15,2013-04-14 23:10:00,
2013-04-14 13:15:00,77.9,67.3,29.84,SW,225,8.0,-999.0,70,0.00,,,0.00,Wunderground v.1.15,2013-04-14 23:15:00,
2013-04-14 13:20:00,77.9,67.3,29.84,SW,225,8.0,-999.0,70,0.00,,,0.00,Wunderground v.1.15,2013-04-14 23:20:00,
2013-04-14 13:25:00,77.9,67.3,29.84,SW,225,8.0,-999.0,70,0.00,,,0.00,Wunderground v.1.15,2013-04-14 23:25:00,
2013-04-14 13:30:00,77.9,67.3,29.84,SW,225,8.0,-999.0,70,0.00,,,0.00,Wunderground v.1.15,2013-04-14 23:30:00,
2013-04-14 13:35:00,77.9,67.3,29.84,SW,225,8.0,-999.0,70,0.00,,,0.00,Wunderground v.1.15,2013-04-14 23:35:00,
2013-04-14 13:40:00,77.9,67.3,29.84,SW,225,8.0,-999.0,70,0.00,,,0.00,Wunderground v.1.15,2013-04-14 23:40:00,
2013-04-14 13:45:00,77.8,66.8,29.83,SW,225,8.0,-999.0,69,0.00,,,0.00,Wunderground v.1.15,2013-04-14 23:45:00,
2013-04-14 13:50:00,77.8,66.8,29.83,SW,225,8.0,-999.0,69,0.00,,,0.00,Wunderground v.1.15,2013-04-14 23:50:00,
2013-04-14 13:55:00,77.8,66.8,29.83,SW,225,8.0,-999.0,69,0.00,,,0.00,Wunderground v.1.15,2013-04-14 23:55:00,
2013-04-14 14:00:00,77.8,66.8,29.83,SW,225,8.0,-999.0,69,0.00,,,0.00,Wunderground v.1.15,2013-04-15 00:00:00,
2013-04-14 14:05:00,77.8,66.8,29.83,SW,225,8.0,-999.0,69,0.00,,,0.00,Wunderground v.1.15,2013-04-15 00:05:00,
2013-04-14 14:10:00,77.8,66.8,29.83,SW,225,8.0,-999.0,69,0.00,,,0.00,Wunderground v.1.15,2013-04-15 00:10:00,
2013-04-14 14:15:00,78.3,66.0,29.82,SW,225,9.0,-999.0,66,0.00,,,0.00,Wunderground v.1.15,2013-04-15 00:15:00,
2013-04-14 14:20:00,78.3,66.0,29.82,SW,225,9.0,-999.0,66,0.00,,,0.00,Wunderground v.1.15,2013-04-15 00:20:00,
2013-04-14 14:25:00,78.3,66.0,29.82,SW,225,9.0,-999.0,66,0.00,,,0.00,Wunderground v.1.15,2013-04-15 00:25:00,
2013-04-14 14:30:00,78.3,66.0,29.82,SW,225,9.0,-999.0,66,0.00,,,0.00,Wunderground v.1.15,2013-04-15 00:30:00,
2013-04-14 14:35:00,78.3,66.0,29.82,SW,225,9.0,-999.0,66,0.00,,,0.00,Wunderground v.1.15,2013-04-15 00:35:00,
2013-04-14 14:40:00,78.3,66.0,29.82,SW,225,9.0,-999.0,66,0.00,,,0.00,Wunderground v.1.15,2013-04-15 00:40:00,
2013-04-14 14:45:00,77.3,62.3,29.82,SW,225,8.0,-999.0,60,0.00,,,0.00,Wunderground v.1.15,2013-04-15 00:45:00,
2013-04-14 14:50:00,77.3,62.3,29.82,SW,225,8.0,-999.0,60,0.00,,,0.00,Wunderground v.1.15,2013-04-15 00:50:00,
2013-04-14 14:55:00,77.3,62.3,29.82,SW,225,8.0,-999.0,60,0.00,,,0.00,Wunderground v.1.15,2013-04-15 00:55:00,
2013-04-14 15:00:00,77.3,62.3,29.82,SW,225,8.0,-999.0,60,0.00,,,0.00,Wunderground v.1.15,2013-04-15 01:00:00,
2013-04-14 15:05:00,77.3,62.3,29.82,SW,225,8.0,-999.0,60,0.00,,,0.00,Wunderground v.1.15,2013-04-15 01:05:00,
2013-04-14 15:10:00,77.3,62.3,29.82,SW,225,8.0,-999.0,60,0.00,,,0.00,Wunderground v.1.15,2013-04-15 01:10:00,
2013-04-14 15:15:00,78.3,62.8,29.81,SW,225,8.0,-999.0,59,0.00,,,0.00,Wunderground v.1.15,2013-04-15 01:15:00,
2013-04-14 15:20:00,78.3,62.8,29.81,SW,225,8.0,-999.0,59,0.00,,,0.00,Wunderground v.1.15,2013-04-15 01:20:00,
2013-04-14 15:25:00,78.3,62.8,29.81,SW,225,8.0,-999.0,59,0.00,,,0.00,Wunderground v.1.15,2013-04-15 01:25:00,
2013-04-14 15:30:00,78.3,62.8,29.81,SW,225,8.0,-999.0,59,0.00,,,0.00,Wunderground v.1.15,2013-04-15 01:30:00,
2013-04-14 15:35:00,78.3,62.8,29.81,SW,225,8.0,-999.0,59,0.00,,,0.00,Wunderground v.1.15,2013-04-15 01:35:00,
2013-04-14 15:40:00,78.3,62.8,29.81,SW,225,8.0,-999.0,59,0.00,,,0.00,Wunderground v.1.15,2013-04-15 01:40:00,
2013-04-14 15:45:00,77.0,65.2,29.82,SW,225,8.0,-999.0,67,0.00,,,0.00,Wunderground v.1.15,2013-04-15 01:45:00,
2013-04-14 15:50:00,77.0,65.2,29.82,SW,225,8.0,-999.0,67,0.00,,,0.00,Wunderground v.1.15,2013-04-15 01:50:00,
2013-04-14 15:55:00,77.0,65.2,29.82,SW,225,8.0,-999.0,67,0.00,,,0.00,Wunderground v.1.15,2013-04-15 01:55:00,
2013-04-14 16:00:00,77.0,65.2,29.82,SW,225,8.0,-999.0,67,0.00,,,0.00,Wunderground v.1.15,2013-04-15 02:00:00,
2013-04-14 16:05:00,77.0,65.2,29.82,SW,225,8.0,-999.0,67,0.00,,,0.00,Wunderground v.1.15,2013-04-15 02:05:00,
2013-04-14 16:10:00,77.0,65.2,29.82,SW,225,8.0,-999.0,67,0.00,,,0.00,Wunderground v.1.15,2013-04-15 02:10:00,
2013-04-14 16:15:00,75.7,65.6,29.81,SW,225,5.0,-999.0,71,0.00,,,0.00,Wunderground v.1.15,2013-04-15 02:15:00,
2013-04-14 16:20:00,75.7,65.6,29.81,SW,225,5.0,-999.0,71,0.00,,,0.00,Wunderground v.1.15,2013-04-15 02:20:00,
2013-04-14 16:25:00,75.7,65.6,29.81,SW,225,5.0,-999.0,71,0.00,,,0.00,Wunderground v.1.15,2013-04-15 02:25:00,
2013-04-14 16:30:00,75.7,65.6,29.81,SW,225,5.0,-999.0,71,0.00,,,0.00,Wunderground v.1.15,2013-04-15 02:30:00,
2013-04-14 16:35:00,75.7,65.6,29.81,SW,225,5.0,-999.0,71,0.00,,,0.00,Wunderground v.1.15,2013-04-15 02:35:00,
2013-04-14 16:40:00,75.7,65.6,29.81,SW,225,5.0,-999.0,71,0.00,,,0.00,Wunderground v.1.15,2013-04-15 02:40:00,
2013-04-14 16:45:00,75.2,65.9,29.82,SW,225,5.0,-999.0,73,0.00,,,0.00,Wunderground v.1.15,2013-04-15 02:45:00,
2013-04-14 16:50:00,75.2,65.9,29.82,SW,225,5.0,-999.0,73,0.00,,,0.00,Wunderground v.1.15,2013-04-15 02:50:00,
2013-04-14 16:55:00,75.2,65.9,29.82,SW,225,5.0,-999.0,73,0.00,,,0.00,Wunderground v.1.15,2013-04-15 02:55:00,
2013-04-14 17:00:00,75.2,65.9,29.82,SW,225,5.0,-999.0,73,0.00,,,0.00,Wunderground v.1.15,2013-04-15 03:00:00,
2013-04-14 17:05:00,75.2,65.9,29.82,SW,225,5.0,-999.0,73,0.00,,,0.00,Wunderground v.1.15,2013-04-15 03:05:00,
2013-04-14 17:10:00,75.2,65.9,29.82,SW,225,5.0,-999.0,73,0.00,,,0.00,Wunderground v.1.15,2013-04-15 03:10:00,
2013-04-14 17:15:00,75.1,65.5,29.83,SW,225,4.0,-999.0,72,0.00,,,0.00,Wunderground v.1.15,2013-04-15 03:15:00,
2013-04-14 17:20:00,75.1,65.5,29.83,SW,225,4.0,-999.0,72,0.00,,,0.00,Wunderground v.1.15,2013-04-15 03:20:00,
2013-04-14 17:25:00,75.1,65.5,29.83,SW,225,4.0,-999.0,72,0.00,,,0.00,Wunderground v.1.15,2013-04-15 03:25:00,
2013-04-14 17:30:00,75.1,65.5,29.83,SW,225,4.0,-999.0,72,0.00,,,0.00,Wunderground v.1.15,2013-04-15 03:30:00,
2013-04-14 17:35:00,75.1,65.5,29.83,SW,225,4.0,-999.0,72,0.00,,,0.00,Wunderground v.1.15,2013-04-15 03:35:00,
2013-04-14 17:40:00,75.1,65.5,29.83,SW,225,4.0,-999.0,72,0.00,,,0.00,Wunderground v.1.15,2013-04-15 03:40:00,
2013-04-14 17:45:00,74.9,66.4,29.84,SW,225,4.0,-999.0,75,0.00,,,0.00,Wunderground v.1.15,2013-04-15 03:45:00,
2013-04-14 17:50:00,74.9,66.4,29.84,SW,225,4.0,-999.0,75,0.00,,,0.00,Wunderground v.1.15,2013-04-15 03:50:00,
2013-04-14 17:55:00,74.9,66.4,29.84,SW,225,4.0,-999.0,75,0.00,,,0.00,Wunderground v.1.15,2013-04-15 03:55:00,
2013-04-14 18:00:00,74.9,66.4,29.84,SW,225,4.0,-999.0,75,0.00,,,0.00,Wunderground v.1.15,2013-04-15 04:00:00,
2013-04-14 18:05:00,74.9,66.4,29.84,SW,225,4.0,-999.0,75,0.00,,,0.00,Wunderground v.1.15,2013-04-15 04:05:00,
2013-04-14 18:10:00,74.9,66.4,29.84,SW,225,4.0,-999.0,75,0.00,,,0.00,Wunderground v.1.15,2013-04-15 04:10:00,
2013-04-14 18:15:00,74.1,66.0,29.86,SSW,203,2.0,-999.0,76,0.00,,,0.00,Wunderground v.1.15,2013-04-15 04:15:00,
2013-04-14 18:20:00,74.1,66.0,29.86,SSW,203,2.0,-999.0,76,0.00,,,0.00,Wunderground v.1.15,2013-04-15 04:20:00,
2013-04-14 18:25:00,74.1,66.0,29.86,SSW,203,2.0,-999.0,76,0.00,,,0.00,Wunderground v.1.15,2013-04-15 04:25:00,
2013-04-14 18:30:00,74.1,66.0,29.86,SSW,203,2.0,-999.0,76,0.00,,,0.00,Wunderground v.1.15,2013-04-15 04:30:00,
2013-04-14 18:35:00,74.1,66.0,29.86,SSW,203,2.0,-999.0,76,0.00,,,0.00,Wunderground v.1.15,2013-04-15 04:35:00,
2013-04-14 18:40:00,74.1,66.0,29.86,SSW,203,2.0,-999.0,76,0.00,,,0.00,Wunderground v.1.15,2013-04-15 04:40:00,
2013-04-14 18:45:00,73.5,65.5,29.86,SSW,203,1.0,-999.0,76,0.00,,,0.00,Wunderground v.1.15,2013-04-15 04:45:00,
2013-04-14 18:50:00,73.5,65.5,29.86,SSW,203,1.0,-999.0,76,0.00,,,0.00,Wunderground v.1.15,2013-04-15 04:50:00,
2013-04-14 18:55:00,73.5,65.5,29.86,SSW,203,1.0,-999.0,76,0.00,,,0.00,Wunderground v.1.15,2013-04-15 04:55:00,
2013-04-14 19:00:00,73.5,65.5,29.86,SSW,203,1.0,-999.0,76,0.00,,,0.00,Wunderground v.1.15,2013-04-15 05:00:00,
2013-04-14 19:05:00,73.5,65.5,29.86,SSW,203,1.0,-999.0,76,0.00,,,0.00,Wunderground v.1.15,2013-04-15 05:05:00,
2013-04-14 19:10:00,73.5,65.5,29.86,SSW,203,1.0,-999.0,76,0.00,,,0.00,Wunderground v.1.15,2013-04-15 05:10:00,
2013-04-14 19:15:00,73.1,64.3,29.87,SSW,203,1.0,-999.0,74,0.00,,,0.00,Wunderground v.1.15,2013-04-15 05:15:00,
2013-04-14 19:20:00,73.1,64.3,29.87,SSW,203,1.0,-999.0,74,0.00,,,0.00,Wunderground v.1.15,2013-04-15 05:20:00,
2013-04-14 19:25:00,73.1,64.3,29.87,SSW,203,1.0,-999.0,74,0.00,,,0.00,Wunderground v.1.15,2013-04-15 05:25:00,
2013-04-14 19:30:00,73.1,64.3,29.87,SSW,203,1.0,-999.0,74,0.00,,,0.00,Wunderground v.1.15,2013-04-15 05:30:00,
2013-04-14 19:35:00,73.1,64.3,29.87,SSW,203,1.0,-999.0,74,0.00,,,0.00,Wunderground v.1.15,2013-04-15 05:35:00,
2013-04-14 19:40:00,73.1,64.3,29.87,SSW,203,1.0,-999.0,74,0.00,,,0.00,Wunderground v.1.15,2013-04-15 05:40:00,
2013-04-14 19:45:00,72.5,62.6,29.88,SSW,203,0.0,-999.0,71,0.00,,,0.00,Wunderground v.1.15,2013-04-15 05:45:00,
2013-04-14 19:50:00,72.5,62.6,29.88,SSW,203,0.0,-999.0,71,0.00,,,0.00,Wunderground v.1.15,2013-04-15 05:50:00,
2013-04-14 19:55:00,72.5,62.6,29.88,SSW,203,0.0,-999.0,71,0.00,,,0.00,Wunderground v.1.15,2013-04-15 05:55:00,
2013-04-14 20:00:00,72.5,62.6,29.88,SSW,203,0.0,-999.0,71,0.00,,,0.00,Wunderground v.1.15,2013-04-15 06:00:00,
2013-04-14 20:05:00,72.5,62.6,29.88,SSW,203,0.0,-999.0,71,0.00,,,0.00,Wunderground v.1.15,2013-04-15 06:05:00,
2013-04-14 20:10:00,72.5,62.6,29.88,SSW,203,0.0,-999.0,71,0.00,,,0.00,Wunderground v.1.15,2013-04-15 06:10:00,
2013-04-14 20:15:00,71.7,61.0,29.88,SSW,203,0.0,-999.0,69,0.00,,,0.00,Wunderground v.1.15,2013-04-15 06:15:00,
2013-04-14 20:20:00,71.7,61.0,29.88,SSW,203,0.0,-999.0,69,0.00,,,0.00,Wunderground v.1.15,2013-04-15 06:20:00,
2013-04-14 20:25:00,71.7,61.0,29.88,SSW,203,0.0,-999.0,69,0.00,,,0.00,Wunderground v.1.15,2013-04-15 06:25:00,
2013-04-14 20:30:00,71.7,61.0,29.88,SSW,203,0.0,-999.0,69,0.00,,,0.00,Wunderground v.1.15,2013-04-15 06:30:00,
2013-04-14 20:35:00,71.7,61.0,29.88,SSW,203,0.0,-999.0,69,0.00,,,0.00,Wunderground v.1.15,2013-04-15 06:35:00,
2013-04-14 20:40:00,71.7,61.0,29.88,SSW,203,0.0,-999.0,69,0.00,,,0.00,Wunderground v.1.15,2013-04-15 06:40:00,
2013-04-14 20:45:00,71.3,60.2,29.89,SSW,203,0.0,-999.0,68,0.00,,,0.00,Wunderground v.1.15,2013-04-15 06:45:00,
2013-04-14 20:50:00,71.3,60.2,29.89,SSW,203,0.0,-999.0,68,0.00,,,0.00,Wunderground v.1.15,2013-04-15 06:50:00,
2013-04-14 20:55:00,71.3,60.2,29.89,SSW,203,0.0,-999.0,68,0.00,,,0.00,Wunderground v.1.15,2013-04-15 06:55:00,
2013-04-14 21:00:00,71.3,60.2,29.89,SSW,203,0.0,-999.0,68,0.00,,,0.00,Wunderground v.1.15,2013-04-15 07:00:00,
2013-04-14 21:05:00,71.3,60.2,29.89,SSW,203,0.0,-999.0,68,0.00,,,0.00,Wunderground v.1.15,2013-04-15 07:05:00,
2013-04-14 21:10:00,71.3,60.2,29.89,SSW,203,0.0,-999.0,68,0.00,,,0.00,Wunderground v.1.15,2013-04-15 07:10:00,
2013-04-14 21:15:00,71.6,60.1,29.90,SSW,203,0.0,-999.0,67,0.00,,,0.00,Wunderground v.1.15,2013-04-15 07:15:00,
2013-04-14 21:20:00,71.6,60.1,29.90,SSW,203,0.0,-999.0,67,0.00,,,0.00,Wunderground v.1.15,2013-04-15 07:20:00,
2013-04-14 21:25:00,71.6,60.1,29.90,SSW,203,0.0,-999.0,67,0.00,,,0.00,Wunderground v.1.15,2013-04-15 07:25:00,
2013-04-14 21:30:00,71.6,60.1,29.90,SSW,203,0.0,-999.0,67,0.00,,,0.00,Wunderground v.1.15,2013-04-15 07:30:00,
2013-04-14 21:35:00,71.6,60.1,29.90,SSW,203,0.0,-999.0,67,0.00,,,0.00,Wunderground v.1.15,2013-04-15 07:35:00,
2013-04-14 21:40:00,71.6,60.1,29.90,SSW,203,0.0,-999.0,67,0.00,,,0.00,Wunderground v.1.15,2013-04-15 07:40:00,
2013-04-14 21:45:00,71.7,61.0,29.91,SSW,203,0.0,-999.0,69,0.00,,,0.00,Wunderground v.1.15,2013-04-15 07:45:00,
2013-04-14 21:50:00,71.7,61.0,29.91,SSW,203,0.0,-999.0,69,0.00,,,0.00,Wunderground v.1.15,2013-04-15 07:50:00,
2013-04-14 21:55:00,71.7,61.0,29.91,SSW,203,0.0,-999.0,69,0.00,,,0.00,Wunderground v.1.15,2013-04-15 07:55:00,
2013-04-14 22:00:00,71.7,61.0,29.91,SSW,203,0.0,-999.0,69,0.00,,,0.00,Wunderground v.1.15,2013-04-15 08:00:00,
2013-04-14 22:05:00,71.7,61.0,29.91,SSW,203,0.0,-999.0,69,0.00,,,0.00,Wunderground v.1.15,2013-04-15 08:05:00,
2013-04-14 22:10:00,71.7,61.0,29.91,SSW,203,0.0,-999.0,69,0.00,,,0.00,Wunderground v.1.15,2013-04-15 08:10:00,
2013-04-14 22:15:00,71.6,60.9,29.92,SSW,203,0.0,-999.0,69,0.00,,,0.00,Wunderground v.1.15,2013-04-15 08:15:00,
2013-04-14 22:20:00,71.6,60.9,29.92,SSW,203,0.0,-999.0,69,0.00,,,0.00,Wunderground v.1.15,2013-04-15 08:20:00,
2013-04-14 22:25:00,71.6,60.9,29.92,SSW,203,0.0,-999.0,69,0.00,,,0.00,Wunderground v.1.15,2013-04-15 08:25:00,
2013-04-14 22:30:00,71.6,60.9,29.92,SSW,203,0.0,-999.0,69,0.00,,,0.00,Wunderground v.1.15,2013-04-15 08:30:00,
2013-04-14 22:35:00,71.6,60.9,29.92,SSW,203,0.0,-999.0,69,0.00,,,0.00,Wunderground v.1.15,2013-04-15 08:35:00,
2013-04-14 22:40:00,71.6,60.9,29.92,SSW,203,0.0,-999.0,69,0.00,,,0.00,Wunderground v.1.15,2013-04-15 08:40:00,
2013-04-14 22:45:00,70.6,60.7,29.91,SSW,203,0.0,-999.0,71,0.00,,,0.00,Wunderground v.1.15,2013-04-15 08:45:00,
2013-04-14 22:50:00,70.6,60.7,29.91,SSW,203,0.0,-999.0,71,0.00,,,0.00,Wunderground v.1.15,2013-04-15 08:50:00,
2013-04-14 22:55:00,70.6,60.7,29.91,SSW,203,0.0,-999.0,71,0.00,,,0.00,Wunderground v.1.15,2013-04-15 08:55:00,
2013-04-14 23:00:00,70.6,60.7,29.91,SSW,203,0.0,-999.0,71,0.00,,,0.00,Wunderground v.1.15,2013-04-15 09:00:00,
2013-04-14 23:05:00,70.6,60.7,29.91,SSW,203,0.0,-999.0,71,0.00,,,0.00,Wunderground v.1.15,2013-04-15 09:05:00,
2013-04-14 23:10:00,70.6,60.7,29.91,SSW,203,0.0,-999.0,71,0.00,,,0.00,Wunderground v.1.15,2013-04-15 09:10:00,
2013-04-14 23:15:00,69.8,60.8,29.90,SSW,203,0.0,-999.0,73,0.00,,,0.00,Wunderground v.1.15,2013-04-15 09:15:00,
2013-04-14 23:20:00,69.8,60.8,29.90,SSW,203,0.0,-999.0,73,0.00,,,0.00,Wunderground v.1.15,2013-04-15 09:20:00,
2013-04-14 23:25:00,69.8,60.8,29.90,SSW,203,0.0,-999.0,73,0.00,,,0.00,Wunderground v.1.15,2013-04-15 09:25:00,
2013-04-14 23:30:00,69.8,60.8,29.90,SSW,203,0.0,-999.0,73,0.00,,,0.00,Wunderground v.1.15,2013-04-15 09:30:00,
2013-04-14 23:35:00,69.8,60.8,29.90,SSW,203,0.0,-999.0,73,0.00,,,0.00,Wunderground v.1.15,2013-04-15 09:35:00,
2013-04-14 23:40:00,69.8,60.8,29.90,SSW,203,0.0,-999.0,73,0.00,,,0.00,Wunderground v.1.15,2013-04-15 09:40:00,
2013-04-14 23:45:00,69.1,60.8,29.89,SSW,203,0.0,-999.0,75,0.00,,,0.00,Wunderground v.1.15,2013-04-15 09:45:00,
2013-04-14 23:50:00,69.1,60.8,29.89,SSW,203,0.0,-999.0,75,0.00,,,0.00,Wunderground v.1.15,2013-04-15 09:50:00,
2013-04-14 23:55:00,69.1,60.8,29.89,SSW,203,0.0,-999.0,75,0.00,,,0.00,Wunderground v.1.15,2013-04-15 09:55:00,